createdAt,value
2022-07-28T00:00:46.932Z,100422.44
2022-07-28T00:03:13.860Z,100394.47
2022-07-28T00:05:41.641Z,100424.31
2022-07-28T00:08:10.302Z,100411.16
2022-07-28T00:10:37.212Z,100409.28
2022-07-28T00:13:06.887Z,100407.28
2022-07-28T00:15:34.181Z,100411.28
2022-07-28T00:18:01.165Z,100422.41
2022-07-28T00:20:28.278Z,100426.47
2022-07-28T00:22:55.137Z,100404.44
2022-07-28T00:25:22.216Z,100408.56
2022-07-28T00:27:49.196Z,100399.34
2022-07-28T00:30:16.052Z,100412.31
2022-07-28T00:32:43.161Z,100400.38
2022-07-28T00:35:10.370Z,100406.19
2022-07-28T00:37:40.041Z,100397.97
2022-07-28T00:40:12.740Z,100414.03
2022-07-28T00:42:39.554Z,100414.56
2022-07-28T00:45:07.158Z,100410.44
2022-07-28T00:47:34.267Z,100416.78
2022-07-28T00:50:02.746Z,100406.87
2022-07-28T00:52:30.146Z,100405.84
2022-07-28T00:54:58.515Z,100407.53
2022-07-28T00:57:25.401Z,100405.00
2022-07-28T00:59:52.335Z,100410.97
2022-07-28T01:02:19.405Z,100415.06
2022-07-28T01:04:46.782Z,100411.31
2022-07-28T01:07:39.871Z,100410.28
2022-07-28T01:10:10.309Z,100409.25
2022-07-28T01:12:59.033Z,100431.31
2022-07-28T01:15:30.329Z,100428.75
2022-07-28T01:18:31.645Z,100416.31
2022-07-28T01:21:11.847Z,100422.50
2022-07-28T01:23:45.172Z,100425.34
2022-07-28T01:26:35.050Z,100426.00
2022-07-28T01:29:29.215Z,100416.13
2022-07-28T01:32:00.108Z,100416.25
2022-07-28T01:34:35.209Z,100405.06
2022-07-28T01:37:13.778Z,100413.78
2022-07-28T01:39:42.708Z,100408.72
2022-07-28T01:42:10.499Z,100404.13
2022-07-28T01:44:42.042Z,100382.13
2022-07-28T01:47:09.360Z,100389.78
2022-07-28T01:49:37.418Z,100376.84
2022-07-28T01:52:08.759Z,100394.25
2022-07-28T01:54:39.439Z,100387.75
2022-07-28T01:57:09.029Z,100385.03
2022-07-28T01:59:38.549Z,100380.41
2022-07-28T02:02:06.182Z,100399.53
2022-07-28T02:04:34.203Z,100388.25
2022-07-28T02:07:01.464Z,100380.41
2022-07-28T02:09:29.280Z,100381.94
2022-07-28T02:11:56.633Z,100388.94
2022-07-28T02:14:25.248Z,100383.28
2022-07-28T02:16:57.652Z,100387.75
2022-07-28T02:19:25.908Z,100383.28
2022-07-28T02:21:53.530Z,100386.03
2022-07-28T02:24:23.770Z,100382.97
2022-07-28T02:26:56.164Z,100385.38
2022-07-28T02:29:49.294Z,100373.25
2022-07-28T02:32:28.678Z,100378.53
2022-07-28T02:35:02.013Z,100381.25
2022-07-28T02:37:46.027Z,100390.81
2022-07-28T02:40:15.508Z,100392.87
2022-07-28T02:42:44.821Z,100382.97
2022-07-28T02:45:13.188Z,100392.69
2022-07-28T02:47:47.026Z,100393.22
2022-07-28T02:50:15.100Z,100390.81
2022-07-28T02:52:43.065Z,100396.63
2022-07-28T02:55:13.196Z,100399.53
2022-07-28T02:57:41.571Z,100401.56
2022-07-28T03:00:09.852Z,100408.41
2022-07-28T03:02:37.227Z,100398.50
2022-07-28T03:05:07.674Z,100418.28
2022-07-28T03:07:41.249Z,100430.56
2022-07-28T03:10:33.605Z,100455.34
2022-07-28T03:13:03.235Z,100446.19
2022-07-28T03:15:31.119Z,100451.91
2022-07-28T03:17:58.563Z,100454.13
2022-07-28T03:20:25.475Z,100453.47
2022-07-28T03:22:52.397Z,100445.31
2022-07-28T03:25:44.783Z,100438.06
2022-07-28T03:28:15.155Z,100446.91
2022-07-28T03:30:43.437Z,100443.91
2022-07-28T03:33:10.843Z,100448.66
2022-07-28T03:35:40.254Z,100447.13
2022-07-28T03:38:22.655Z,100463.97
2022-07-28T03:40:50.252Z,100465.06
2022-07-28T03:43:19.645Z,100458.91
2022-07-28T03:45:47.925Z,100452.28
2022-07-28T03:48:15.393Z,100455.22
2022-07-28T03:50:42.590Z,100464.94
2022-07-28T03:53:14.792Z,100468.44
2022-07-28T03:55:41.604Z,100483.72
2022-07-28T03:58:08.651Z,100479.44
2022-07-28T04:00:35.616Z,100482.13
2022-07-28T04:03:02.473Z,100479.62
2022-07-28T04:05:29.285Z,100480.69
2022-07-28T04:07:56.234Z,100467.87
2022-07-28T04:10:23.134Z,100484.75
2022-07-28T04:12:55.536Z,100475.25
2022-07-28T04:15:23.037Z,100480.53
2022-07-28T04:17:51.516Z,100484.91
2022-07-28T04:20:19.670Z,100479.16
2022-07-28T04:22:47.741Z,100483.03
2022-07-28T04:25:15.559Z,100470.00
2022-07-28T04:27:43.573Z,100460.44
2022-07-28T04:30:18.777Z,100438.38
2022-07-28T04:32:46.879Z,100439.06
2022-07-28T04:35:17.567Z,100441.59
2022-07-28T04:37:45.688Z,100439.31
2022-07-28T04:40:13.618Z,100452.94
2022-07-28T04:42:41.482Z,100444.03
2022-07-28T04:45:11.535Z,100430.28
2022-07-28T04:47:39.125Z,100423.41
2022-07-28T04:50:08.331Z,100426.44
2022-07-28T04:52:35.388Z,100429.81
2022-07-28T04:55:02.593Z,100424.75
2022-07-28T04:57:30.128Z,100433.69
2022-07-28T04:59:58.407Z,100432.38
2022-07-28T05:02:25.338Z,100438.19
2022-07-28T05:04:52.713Z,100442.84
2022-07-28T05:07:19.828Z,100441.50
2022-07-28T05:09:46.651Z,100441.72
2022-07-28T05:12:13.531Z,100442.78
2022-07-28T05:14:40.444Z,100437.44
2022-07-28T05:17:07.327Z,100462.91
2022-07-28T05:19:37.485Z,100462.34
2022-07-28T05:22:04.454Z,100455.88
2022-07-28T05:24:31.567Z,100469.03
2022-07-28T05:26:58.651Z,100451.06
2022-07-28T05:29:25.558Z,100466.09
2022-07-28T05:32:06.419Z,100458.13
2022-07-28T05:34:43.763Z,100458.91
2022-07-28T05:37:10.593Z,100458.75
2022-07-28T05:39:37.669Z,100461.19
2022-07-28T05:42:04.629Z,100465.22
2022-07-28T05:44:35.903Z,100459.22
2022-07-28T05:47:05.562Z,100458.94
2022-07-28T05:49:33.841Z,100466.78
2022-07-28T05:52:00.843Z,100457.81
2022-07-28T05:54:28.252Z,100464.09
2022-07-28T05:56:55.100Z,100464.16
2022-07-28T05:59:21.907Z,100467.56
2022-07-28T06:01:48.837Z,100463.34
2022-07-28T06:04:31.493Z,100462.03
2022-07-28T06:06:58.638Z,100458.44
2022-07-28T06:09:25.482Z,100465.59
2022-07-28T06:11:52.376Z,100476.38
2022-07-28T06:14:19.497Z,100474.72
2022-07-28T06:16:51.234Z,100477.25
2022-07-28T06:19:19.064Z,100473.09
2022-07-28T06:21:47.551Z,100477.53
2022-07-28T06:24:14.812Z,100470.34
2022-07-28T06:26:44.690Z,100463.28
2022-07-28T06:29:12.650Z,100464.31
2022-07-28T06:31:40.105Z,100460.56
2022-07-28T06:34:07.021Z,100455.59
2022-07-28T06:36:33.905Z,100453.87
2022-07-28T06:39:00.815Z,100457.56
2022-07-28T06:41:28.148Z,100452.75
2022-07-28T06:43:55.116Z,100447.34
2022-07-28T06:46:22.932Z,100453.97
2022-07-28T06:48:50.232Z,100461.25
2022-07-28T06:51:19.230Z,100460.50
2022-07-28T06:53:48.630Z,100447.88
2022-07-28T06:56:16.845Z,100466.59
2022-07-28T06:58:47.352Z,100449.47
2022-07-28T07:01:15.496Z,100452.28
2022-07-28T07:03:43.407Z,100443.94
2022-07-28T07:06:11.137Z,100443.94
2022-07-28T07:08:38.499Z,100437.88
2022-07-28T07:11:05.504Z,100432.97
2022-07-28T07:13:33.117Z,100436.38
2022-07-28T07:16:00.757Z,100426.13
2022-07-28T07:18:27.946Z,100413.94
2022-07-28T07:20:57.165Z,100420.31
2022-07-28T07:23:24.031Z,100408.97
2022-07-28T07:25:50.918Z,100409.28
2022-07-28T07:28:17.838Z,100410.63
2022-07-28T07:30:45.068Z,100414.38
2022-07-28T07:33:12.470Z,100418.75
2022-07-28T07:35:39.828Z,100411.78
2022-07-28T07:38:07.036Z,100408.62
2022-07-28T07:40:34.258Z,100409.69
2022-07-28T07:43:01.263Z,100408.22
2022-07-28T07:45:28.164Z,100403.88
2022-07-28T07:47:54.995Z,100416.94
2022-07-28T07:50:22.077Z,100418.69
2022-07-28T07:52:51.730Z,100407.81
2022-07-28T07:55:18.838Z,100423.19
2022-07-28T07:57:45.755Z,100439.34
2022-07-28T08:00:28.081Z,100393.88
2022-07-28T08:02:57.278Z,100407.19
2022-07-28T08:05:34.776Z,100409.72
2022-07-28T08:08:06.445Z,100389.19
2022-07-28T08:10:38.178Z,100383.84
2022-07-28T08:13:06.332Z,100355.94
2022-07-28T08:15:33.846Z,100367.59
2022-07-28T08:18:01.818Z,100377.47
2022-07-28T08:20:29.297Z,100381.34
2022-07-28T08:22:57.584Z,100386.69
2022-07-28T08:25:24.709Z,100386.84
2022-07-28T08:27:51.626Z,100389.03
2022-07-28T08:30:22.274Z,100377.47
2022-07-28T08:32:56.705Z,100375.84
2022-07-28T08:35:34.740Z,100385.78
2022-07-28T08:38:03.902Z,100381.91
2022-07-28T08:40:32.559Z,100385.22
2022-07-28T08:43:08.247Z,100381.25
2022-07-28T08:45:37.182Z,100379.97
2022-07-28T08:48:09.706Z,100388.69
2022-07-28T08:50:38.733Z,100379.91
2022-07-28T08:53:06.730Z,100390.44
2022-07-28T08:55:36.090Z,100371.88
2022-07-28T08:58:03.907Z,100366.66
2022-07-28T09:00:31.217Z,100368.53
2022-07-28T09:02:58.450Z,100363.69
2022-07-28T09:05:25.349Z,100358.47
2022-07-28T09:07:55.446Z,100374.12
2022-07-28T09:10:23.359Z,100370.38
2022-07-28T09:12:50.323Z,100347.03
2022-07-28T09:15:17.161Z,100365.00
2022-07-28T09:17:44.150Z,100357.59
2022-07-28T09:20:12.190Z,100369.22
2022-07-28T09:22:59.383Z,100353.66
2022-07-28T09:25:26.924Z,100382.25
2022-07-28T09:27:54.999Z,100367.19
2022-07-28T09:30:32.700Z,100373.66
2022-07-28T09:33:42.028Z,100370.16
2022-07-28T09:36:15.642Z,100359.28
2022-07-28T09:38:42.788Z,100344.78
2022-07-28T09:41:09.882Z,100348.19
2022-07-28T09:43:42.513Z,100353.06
2022-07-28T09:46:11.389Z,100346.38
2022-07-28T09:48:50.743Z,100349.78
2022-07-28T09:51:21.953Z,100337.19
2022-07-28T09:53:50.800Z,100340.38
2022-07-28T09:56:18.606Z,100339.53
2022-07-28T09:58:57.426Z,100327.53
2022-07-28T10:01:25.997Z,100353.38
2022-07-28T10:03:57.750Z,100340.09
2022-07-28T10:06:34.237Z,100331.38
2022-07-28T10:09:03.594Z,100348.75
2022-07-28T10:11:31.090Z,100318.31
2022-07-28T10:14:06.167Z,100326.84
2022-07-28T10:16:42.516Z,100324.25
2022-07-28T10:19:09.600Z,100305.81
2022-07-28T10:21:41.543Z,100324.63
2022-07-28T10:24:10.265Z,100312.09
2022-07-28T10:26:44.643Z,100311.13
2022-07-28T10:29:17.283Z,100306.66
2022-07-28T10:31:53.258Z,100306.94
2022-07-28T10:34:26.853Z,100303.06
2022-07-28T10:36:55.840Z,100294.47
2022-07-28T10:39:26.246Z,100299.34
2022-07-28T10:41:53.298Z,100303.81
2022-07-28T10:44:20.371Z,100311.44
2022-07-28T10:46:47.680Z,100292.78
2022-07-28T10:49:14.947Z,100291.66
2022-07-28T10:52:06.311Z,100275.09
2022-07-28T10:54:43.659Z,100270.84
2022-07-28T10:57:12.681Z,100278.00
2022-07-28T10:59:58.168Z,100285.06
2022-07-28T11:02:47.409Z,100288.37
2022-07-28T11:05:39.120Z,100282.91
2022-07-28T11:08:07.595Z,100264.94
2022-07-28T11:10:44.932Z,100303.69
2022-07-28T11:13:35.871Z,100287.41
2022-07-28T11:16:13.255Z,100254.78
2022-07-28T11:19:08.110Z,100278.63
2022-07-28T11:22:15.004Z,100255.62
2022-07-28T11:24:58.016Z,100277.37
2022-07-28T11:27:45.307Z,100273.12
2022-07-28T11:30:35.862Z,100265.69
2022-07-28T11:33:04.268Z,100263.09
2022-07-28T11:35:55.154Z,100255.69
2022-07-28T11:38:23.411Z,100238.91
2022-07-28T11:40:54.616Z,100235.84
2022-07-28T11:43:22.468Z,100239.59
2022-07-28T11:46:01.387Z,100239.53
2022-07-28T11:48:29.767Z,100236.38
2022-07-28T11:51:02.712Z,100243.97
2022-07-28T11:53:40.010Z,100227.75
2022-07-28T11:56:12.647Z,100250.91
2022-07-28T11:58:40.904Z,100229.84
2022-07-28T12:01:20.019Z,100238.47
2022-07-28T12:03:55.534Z,100227.03
2022-07-28T12:06:28.961Z,100238.69
2022-07-28T12:09:02.371Z,100213.03
2022-07-28T12:11:37.163Z,100206.72
2022-07-28T12:14:05.041Z,100208.44
2022-07-28T12:16:33.504Z,100211.72
2022-07-28T12:19:01.865Z,100211.50
2022-07-28T12:21:50.310Z,100199.44
2022-07-28T12:24:29.519Z,100200.25
2022-07-28T12:26:57.730Z,100200.03
2022-07-28T12:29:35.588Z,100179.66
2022-07-28T12:32:05.721Z,100207.13
2022-07-28T12:34:38.047Z,100205.75
2022-07-28T12:37:09.799Z,100202.53
2022-07-28T12:39:39.851Z,100197.97
2022-07-28T12:42:09.030Z,100171.06
2022-07-28T12:44:40.637Z,100206.31
2022-07-28T12:47:09.289Z,100200.13
2022-07-28T12:49:37.420Z,100211.19
2022-07-28T12:52:23.519Z,100193.09
2022-07-28T12:54:55.089Z,100197.28
2022-07-28T12:57:48.767Z,100193.88
2022-07-28T13:00:19.632Z,100210.37
2022-07-28T13:02:47.383Z,100210.44
2022-07-28T13:05:30.492Z,100203.97
2022-07-28T13:08:02.252Z,100179.19
2022-07-28T13:10:30.302Z,100199.84
2022-07-28T13:13:06.808Z,100200.47
2022-07-28T13:15:34.379Z,100200.63
2022-07-28T13:18:01.424Z,100190.16
2022-07-28T13:20:28.705Z,100197.13
2022-07-28T13:22:57.353Z,100196.84
2022-07-28T13:25:24.452Z,100189.03
2022-07-28T13:27:55.479Z,100214.06
2022-07-28T13:30:23.744Z,100203.63
2022-07-28T13:32:51.039Z,100200.78
2022-07-28T13:35:19.143Z,100208.72
2022-07-28T13:37:48.557Z,100211.97
2022-07-28T13:40:15.632Z,100210.34
2022-07-28T13:42:52.405Z,100210.72
2022-07-28T13:45:22.083Z,100199.69
2022-07-28T13:47:52.381Z,100194.81
2022-07-28T13:50:21.005Z,100187.31
2022-07-28T13:52:48.589Z,100190.69
2022-07-28T13:55:16.006Z,100188.72
2022-07-28T13:57:48.977Z,100188.72
2022-07-28T14:00:18.738Z,100198.69
2022-07-28T14:02:48.757Z,100189.53
2022-07-28T14:05:16.104Z,100182.50
2022-07-28T14:07:48.104Z,100180.25
2022-07-28T14:10:17.872Z,100171.06
2022-07-28T14:12:46.346Z,100178.91
2022-07-28T14:15:13.882Z,100177.81
2022-07-28T14:17:43.593Z,100165.63
2022-07-28T14:20:13.739Z,100175.69
2022-07-28T14:22:41.445Z,100181.00
2022-07-28T14:25:08.854Z,100184.38
2022-07-28T14:27:35.863Z,100184.56
2022-07-28T14:30:04.285Z,100192.91
2022-07-28T14:32:33.419Z,100193.94
2022-07-28T14:35:02.072Z,100193.22
2022-07-28T14:37:33.219Z,100196.81
2022-07-28T14:40:09.063Z,100196.69
2022-07-28T14:42:36.650Z,100184.41
2022-07-28T14:45:05.564Z,100189.41
2022-07-28T14:47:43.897Z,100193.63
2022-07-28T14:50:12.957Z,100197.06
2022-07-28T14:52:39.883Z,100199.22
2022-07-28T14:55:07.060Z,100211.09
2022-07-28T14:57:51.812Z,100199.97
2022-07-28T15:00:22.066Z,100211.81
2022-07-28T15:02:49.045Z,100219.84
2022-07-28T15:05:15.984Z,100214.44
2022-07-28T15:07:42.903Z,100208.19
2022-07-28T15:10:10.595Z,100203.34
2022-07-28T15:12:38.157Z,100200.47
2022-07-28T15:15:05.609Z,100202.41
2022-07-28T15:17:33.006Z,100207.09
2022-07-28T15:19:59.882Z,100208.78
2022-07-28T15:22:26.755Z,100201.66
2022-07-28T15:24:53.730Z,100201.66
2022-07-28T15:27:20.829Z,100202.25
2022-07-28T15:29:52.203Z,100193.69
2022-07-28T15:32:19.526Z,100197.44
2022-07-28T15:34:53.974Z,100203.59
2022-07-28T15:37:20.844Z,100205.28
2022-07-28T15:39:47.887Z,100206.03
2022-07-28T15:42:15.371Z,100215.66
2022-07-28T15:44:42.192Z,100207.56
2022-07-28T15:47:09.064Z,100207.84
2022-07-28T15:49:37.059Z,100220.72
2022-07-28T15:52:04.448Z,100205.53
2022-07-28T15:54:31.403Z,100213.13
2022-07-28T15:56:58.437Z,100200.69
2022-07-28T15:59:26.770Z,100213.22
2022-07-28T16:02:13.715Z,100205.63
2022-07-28T16:04:53.312Z,100199.22
2022-07-28T16:07:28.056Z,100207.53
2022-07-28T16:09:55.676Z,100215.59
2022-07-28T16:12:25.464Z,100213.16
2022-07-28T16:14:56.980Z,100214.09
2022-07-28T16:17:24.180Z,100215.91
2022-07-28T16:19:51.874Z,100205.75
2022-07-28T16:22:19.698Z,100215.28
2022-07-28T16:24:47.198Z,100217.56
2022-07-28T16:27:14.760Z,100211.91
2022-07-28T16:29:42.561Z,100216.16
2022-07-28T16:32:09.580Z,100204.19
2022-07-28T16:34:36.451Z,100205.28
2022-07-28T16:37:05.092Z,100209.16
2022-07-28T16:39:34.361Z,100203.22
2022-07-28T16:42:01.706Z,100193.53
2022-07-28T16:44:28.979Z,100195.81
2022-07-28T16:46:56.312Z,100192.47
2022-07-28T16:49:23.900Z,100203.75
2022-07-28T16:51:51.098Z,100208.47
2022-07-28T16:54:18.456Z,100205.91
2022-07-28T16:56:45.939Z,100213.25
2022-07-28T16:59:12.842Z,100213.22
2022-07-28T17:01:43.692Z,100208.75
2022-07-28T17:04:13.834Z,100211.88
2022-07-28T17:06:41.120Z,100196.34
2022-07-28T17:09:08.037Z,100206.59
2022-07-28T17:11:35.679Z,100214.06
2022-07-28T17:14:02.718Z,100209.87
2022-07-28T17:16:29.722Z,100201.16
2022-07-28T17:18:57.150Z,100214.88
2022-07-28T17:21:25.650Z,100211.91
2022-07-28T17:23:53.025Z,100208.06
2022-07-28T17:29:07.025Z,100212.22
2022-07-28T17:31:34.026Z,100212.41
2022-07-28T17:34:01.215Z,100222.59
2022-07-28T17:36:28.147Z,100229.44
2022-07-28T17:38:55.115Z,100229.28
2022-07-28T17:41:22.059Z,100229.34
2022-07-28T17:43:48.911Z,100237.94
2022-07-28T17:46:15.834Z,100257.66
2022-07-28T17:48:42.806Z,100253.91
2022-07-28T17:51:09.795Z,100259.62
2022-07-28T17:53:39.577Z,100258.44
2022-07-28T17:56:08.906Z,100262.34
2022-07-28T17:58:36.304Z,100271.16
2022-07-28T18:01:11.007Z,100263.41
2022-07-28T18:03:58.661Z,100273.16
2022-07-28T18:06:28.870Z,100279.53
2022-07-28T18:08:55.922Z,100280.25
2022-07-28T18:11:22.754Z,100277.75
2022-07-28T18:14:04.077Z,100272.28
2022-07-28T18:16:34.176Z,100267.84
2022-07-28T18:19:02.250Z,100280.41
2022-07-28T18:21:29.273Z,100277.25
2022-07-28T18:23:56.206Z,100283.81
2022-07-28T18:26:23.237Z,100290.00
2022-07-28T18:28:50.436Z,100289.62
2022-07-28T18:31:17.674Z,100309.16
2022-07-28T18:33:44.636Z,100311.69
2022-07-28T18:36:11.863Z,100318.47
2022-07-28T18:38:38.955Z,100309.16
2022-07-28T18:41:05.783Z,100309.97
2022-07-28T18:43:32.727Z,100318.03
2022-07-28T18:45:59.628Z,100311.03
2022-07-28T18:48:26.647Z,100317.59
2022-07-28T18:51:00.085Z,100327.91
2022-07-28T18:53:28.788Z,100321.75
2022-07-28T18:55:55.649Z,100335.47
2022-07-28T18:58:23.213Z,100334.94
2022-07-28T19:00:50.135Z,100352.34
2022-07-28T19:03:17.055Z,100360.94
2022-07-28T19:05:46.089Z,100366.19
2022-07-28T19:08:13.741Z,100361.44
2022-07-28T19:10:40.767Z,100370.41
2022-07-28T19:13:12.222Z,100389.16
2022-07-28T19:15:40.748Z,100385.53
2022-07-28T19:18:11.506Z,100372.28
2022-07-28T19:20:44.820Z,100378.81
2022-07-28T19:23:11.851Z,100384.91
2022-07-28T19:25:39.426Z,100380.53
2022-07-28T19:28:07.112Z,100380.53
2022-07-28T19:30:35.101Z,100387.38
2022-07-28T19:33:03.156Z,100393.69
2022-07-28T19:35:30.361Z,100384.72
2022-07-28T19:37:59.966Z,100372.97
2022-07-28T19:40:31.631Z,100383.09
2022-07-28T19:42:59.155Z,100380.97
2022-07-28T19:45:26.213Z,100386.53
2022-07-28T19:47:54.641Z,100382.38
2022-07-28T19:50:21.835Z,100392.16
2022-07-28T19:52:48.838Z,100389.47
2022-07-28T19:55:17.545Z,100386.81
2022-07-28T19:57:47.437Z,100392.13
2022-07-28T20:00:17.335Z,100385.41
2022-07-28T20:02:45.835Z,100393.56
2022-07-28T20:05:15.951Z,100396.47
2022-07-28T20:07:43.208Z,100400.44
2022-07-28T20:10:10.072Z,100390.81
2022-07-28T20:12:37.331Z,100406.69
2022-07-28T20:15:05.503Z,100406.91
2022-07-28T20:17:38.842Z,100402.25
2022-07-28T20:20:11.590Z,100412.75
2022-07-28T20:22:39.368Z,100408.66
2022-07-28T20:25:09.288Z,100425.97
2022-07-28T20:27:41.245Z,100479.25
2022-07-28T20:30:09.912Z,100491.13
2022-07-28T20:32:37.704Z,100467.97
2022-07-28T20:35:06.069Z,100470.66
2022-07-28T20:37:36.570Z,100467.94
2022-07-28T20:40:05.197Z,100450.03
2022-07-28T20:42:32.244Z,100454.19
2022-07-28T20:44:59.099Z,100454.22
2022-07-28T20:47:27.830Z,100453.97
2022-07-28T20:49:55.504Z,100447.28
2022-07-28T20:52:23.530Z,100459.34
2022-07-28T20:54:54.277Z,100473.22
2022-07-28T20:57:22.062Z,100464.41
2022-07-28T20:59:51.193Z,100463.69
2022-07-28T21:02:19.408Z,100466.75
2022-07-28T21:04:46.292Z,100464.25
2022-07-28T21:08:00.255Z,100447.75
2022-07-28T21:10:08.641Z,100452.72
2022-07-28T21:12:37.227Z,100458.13
2022-07-28T21:15:08.290Z,100444.66
2022-07-28T21:17:36.030Z,100462.62
2022-07-28T21:20:04.197Z,100453.03
2022-07-28T21:22:31.634Z,100452.81
2022-07-28T21:24:59.180Z,100446.91
2022-07-28T21:27:26.089Z,100458.03
2022-07-28T21:32:18.988Z,100475.06
2022-07-28T21:34:46.276Z,100487.63
2022-07-28T21:37:14.148Z,100499.00
2022-07-28T21:39:41.254Z,100504.44
2022-07-28T21:42:09.308Z,100516.94
2022-07-28T21:44:37.205Z,100516.75
2022-07-28T21:47:04.450Z,100505.25
2022-07-28T21:49:32.347Z,100505.50
2022-07-28T21:51:59.503Z,100502.50
2022-07-28T21:54:26.486Z,100505.06
2022-07-28T21:56:53.322Z,100508.09
2022-07-28T21:59:20.173Z,100511.50
2022-07-28T22:01:47.226Z,100514.97
2022-07-28T22:04:14.465Z,100514.13
2022-07-28T22:06:41.637Z,100513.75
2022-07-28T22:09:14.685Z,100518.41
2022-07-28T22:11:41.938Z,100521.63
2022-07-28T22:14:09.165Z,100517.72
2022-07-28T22:16:36.372Z,100518.41
2022-07-28T22:19:03.895Z,100512.56
2022-07-28T22:21:30.834Z,100516.31
2022-07-28T22:23:57.645Z,100516.31
2022-07-28T22:26:24.574Z,100518.50
2022-07-28T22:28:51.368Z,100520.09
2022-07-28T22:31:18.338Z,100522.28
2022-07-28T22:33:45.175Z,100523.16
2022-07-28T22:36:12.005Z,100524.34
2022-07-28T22:38:38.870Z,100526.78
2022-07-28T22:41:05.712Z,100520.81
2022-07-28T22:43:33.855Z,100523.34
2022-07-28T22:46:00.996Z,100533.19
2022-07-28T22:48:28.302Z,100539.50
2022-07-28T22:50:55.472Z,100529.78
2022-07-28T22:53:22.335Z,100539.75
2022-07-28T22:55:49.341Z,100557.78
2022-07-28T22:58:16.194Z,100552.88
2022-07-28T23:00:43.609Z,100557.53
2022-07-28T23:03:13.133Z,100557.53
2022-07-28T23:05:40.459Z,100550.19
2022-07-28T23:08:07.308Z,100559.09
2022-07-28T23:10:34.657Z,100562.87
2022-07-28T23:13:01.615Z,100564.59
2022-07-28T23:15:39.519Z,100555.37
2022-07-28T23:18:14.138Z,100556.22
2022-07-28T23:20:41.826Z,100559.13
2022-07-28T23:23:09.122Z,100550.59
2022-07-28T23:25:36.953Z,100559.13
2022-07-28T23:28:03.928Z,100556.56
2022-07-28T23:30:30.882Z,100559.84
2022-07-28T23:32:57.765Z,100560.88
2022-07-28T23:35:24.888Z,100562.56
2022-07-28T23:37:51.781Z,100556.06
2022-07-28T23:40:18.673Z,100563.25
2022-07-28T23:42:45.514Z,100560.19
2022-07-28T23:45:12.404Z,100557.94
2022-07-28T23:47:39.345Z,100558.16
2022-07-28T23:50:06.720Z,100560.69
2022-07-28T23:52:33.913Z,100560.03
2022-07-28T23:55:00.739Z,100561.00
2022-07-28T23:57:30.839Z,100568.53
2022-07-28T23:59:59.410Z,100563.59
